createdAt,value
2022-11-02T00:00:31.300Z,1.10
2022-11-02T00:02:59.096Z,1.65
2022-11-02T00:05:26.953Z,0.93
2022-11-02T00:07:55.957Z,0.80
2022-11-02T00:10:24.942Z,0.90
2022-11-02T00:12:53.376Z,1.55
2022-11-02T00:15:21.210Z,0.50
2022-11-02T00:17:54.589Z,1.08
2022-11-02T00:20:22.615Z,0.90
2022-11-02T00:22:54.382Z,0.75
2022-11-02T00:25:24.698Z,1.00
2022-11-02T00:27:52.470Z,0.93
2022-11-02T00:30:20.887Z,1.15
2022-11-02T00:32:49.907Z,0.98
2022-11-02T00:35:17.623Z,1.33
2022-11-02T00:37:45.343Z,0.55
2022-11-02T00:40:13.453Z,1.10
2022-11-02T00:42:41.225Z,1.05
2022-11-02T00:45:10.070Z,0.95
2022-11-02T00:47:38.332Z,0.52
2022-11-02T00:50:08.576Z,2.30
2022-11-02T00:52:36.317Z,0.63
2022-11-02T00:55:04.179Z,1.20
2022-11-02T00:57:31.813Z,0.93
2022-11-02T00:59:59.629Z,1.23
2022-11-02T01:02:28.100Z,0.98
2022-11-02T01:04:55.946Z,1.00
2022-11-02T01:07:25.021Z,0.80
2022-11-02T01:09:53.158Z,0.93
2022-11-02T01:12:20.935Z,1.10
2022-11-02T01:14:48.948Z,0.90
2022-11-02T01:17:17.168Z,0.47
2022-11-02T01:19:45.255Z,0.93
2022-11-02T01:22:13.523Z,0.82
2022-11-02T01:24:42.565Z,0.90
2022-11-02T01:27:10.285Z,0.65
2022-11-02T01:29:38.018Z,1.40
2022-11-02T01:32:06.135Z,0.40
2022-11-02T01:34:33.900Z,0.82
2022-11-02T01:37:01.619Z,1.20
2022-11-02T01:39:29.613Z,0.65
2022-11-02T01:41:58.723Z,1.35
2022-11-02T01:44:31.152Z,2.15
2022-11-02T01:47:03.955Z,1.00
2022-11-02T01:49:37.616Z,1.40
2022-11-02T01:52:09.503Z,1.38
2022-11-02T01:54:41.298Z,1.10
2022-11-02T01:57:15.832Z,0.98
2022-11-02T01:59:48.514Z,1.33
2022-11-02T02:02:21.521Z,0.80
2022-11-02T02:04:53.858Z,0.77
2022-11-02T02:07:25.121Z,1.20
2022-11-02T02:09:53.849Z,0.80
2022-11-02T02:12:24.000Z,0.85
2022-11-02T02:14:52.115Z,1.15
2022-11-02T02:17:29.680Z,1.30
2022-11-02T02:20:01.677Z,1.00
2022-11-02T02:22:55.102Z,1.08
2022-11-02T02:25:35.190Z,0.90
2022-11-02T02:28:19.585Z,0.75
2022-11-02T02:30:52.779Z,0.85
2022-11-02T02:33:30.671Z,1.00
2022-11-02T02:36:03.040Z,1.08
2022-11-02T02:38:34.763Z,1.58
2022-11-02T02:41:11.849Z,0.77
2022-11-02T02:43:44.247Z,0.32
2022-11-02T02:46:18.004Z,0.60
2022-11-02T02:48:47.581Z,1.27
2022-11-02T02:51:20.105Z,0.80
2022-11-02T02:53:51.255Z,1.52
2022-11-02T02:56:22.223Z,0.93
2022-11-02T02:58:56.661Z,2.10
2022-11-02T03:01:26.116Z,0.80
2022-11-02T03:03:54.100Z,0.93
2022-11-02T03:06:26.280Z,1.02
2022-11-02T03:09:06.686Z,0.95
2022-11-02T03:11:35.943Z,1.08
2022-11-02T03:14:22.999Z,1.02
2022-11-02T03:17:11.571Z,1.05
2022-11-02T03:19:47.688Z,1.30
2022-11-02T03:22:24.115Z,1.13
2022-11-02T03:25:00.156Z,0.45
2022-11-02T03:27:39.740Z,0.85
2022-11-02T03:30:14.249Z,0.90
2022-11-02T03:32:49.659Z,0.80
2022-11-02T03:35:22.381Z,0.60
2022-11-02T03:37:57.095Z,1.00
2022-11-02T03:40:29.779Z,1.52
2022-11-02T03:42:59.788Z,1.30
2022-11-02T03:45:37.056Z,0.63
2022-11-02T03:48:08.025Z,2.08
2022-11-02T03:50:39.145Z,0.90
2022-11-02T03:53:10.794Z,0.93
2022-11-02T03:55:43.219Z,1.15
2022-11-02T03:58:11.260Z,0.98
2022-11-02T04:00:48.572Z,1.23
2022-11-02T04:03:17.823Z,1.00
2022-11-02T04:05:45.534Z,0.80
2022-11-02T04:08:24.857Z,1.00
2022-11-02T04:11:11.609Z,0.73
2022-11-02T04:13:56.927Z,1.00
2022-11-02T04:16:28.167Z,1.45
2022-11-02T04:19:14.297Z,1.58
2022-11-02T04:22:02.438Z,1.25
2022-11-02T04:24:48.085Z,1.48
2022-11-02T04:27:20.597Z,1.08
2022-11-02T04:29:48.826Z,0.57
2022-11-02T04:32:38.694Z,1.33
2022-11-02T04:35:06.960Z,1.10
2022-11-02T04:38:02.522Z,1.65
2022-11-02T04:40:30.721Z,1.15
2022-11-02T04:42:59.503Z,0.65
2022-11-02T04:45:27.183Z,1.10
2022-11-02T04:48:01.444Z,0.95
2022-11-02T04:50:29.463Z,1.90
2022-11-02T04:53:00.146Z,1.45
2022-11-02T04:55:28.574Z,1.15
2022-11-02T04:57:56.828Z,1.67
2022-11-02T05:00:25.053Z,0.90
2022-11-02T05:02:52.872Z,1.10
2022-11-02T05:05:21.996Z,1.35
2022-11-02T05:07:49.660Z,2.03
2022-11-02T05:10:17.519Z,1.75
2022-11-02T05:12:45.156Z,1.10
2022-11-02T05:15:15.230Z,1.13
2022-11-02T05:17:43.989Z,1.40
2022-11-02T05:20:14.532Z,1.13
2022-11-02T05:22:44.188Z,0.73
2022-11-02T05:25:13.771Z,1.13
2022-11-02T05:27:41.440Z,1.30
2022-11-02T05:30:10.455Z,1.15
2022-11-02T05:32:38.166Z,2.30
2022-11-02T05:35:06.817Z,0.95
2022-11-02T05:37:34.474Z,1.02
2022-11-02T05:40:03.672Z,1.10
2022-11-02T05:42:32.404Z,1.80
2022-11-02T05:45:00.078Z,1.75
2022-11-02T05:47:27.785Z,1.42
2022-11-02T05:49:56.880Z,1.23
2022-11-02T05:52:24.537Z,1.13
2022-11-02T05:54:52.195Z,1.42
2022-11-02T05:57:21.785Z,1.00
2022-11-02T05:59:49.663Z,2.28
2022-11-02T06:02:17.397Z,2.58
2022-11-02T06:04:45.057Z,5.07
2022-11-02T06:07:12.815Z,5.15
2022-11-02T06:09:40.541Z,5.53
2022-11-02T06:12:08.773Z,4.45
2022-11-02T06:14:37.931Z,3.92
2022-11-02T06:17:05.691Z,1.02
2022-11-02T06:19:33.365Z,2.70
2022-11-02T06:22:01.095Z,1.02
2022-11-02T06:24:28.848Z,1.45
2022-11-02T06:26:56.512Z,1.15
2022-11-02T06:29:24.202Z,1.13
2022-11-02T06:31:54.041Z,0.80
2022-11-02T06:34:21.820Z,0.88
2022-11-02T06:36:49.695Z,1.52
2022-11-02T06:39:17.461Z,1.42
2022-11-02T06:41:47.416Z,0.90
2022-11-02T06:44:17.257Z,0.73
2022-11-02T06:46:45.155Z,1.20
2022-11-02T06:49:14.242Z,1.40
2022-11-02T06:51:41.999Z,1.05
2022-11-02T06:54:12.350Z,1.20
2022-11-02T06:56:40.061Z,1.15
2022-11-02T06:59:07.747Z,1.45
2022-11-02T07:01:36.009Z,2.00
2022-11-02T07:04:04.454Z,1.42
2022-11-02T07:06:33.471Z,1.02
2022-11-02T07:09:01.150Z,1.15
2022-11-02T07:11:28.873Z,1.77
2022-11-02T07:13:57.136Z,1.73
2022-11-02T07:16:25.149Z,1.35
2022-11-02T07:18:53.132Z,1.10
2022-11-02T07:23:54.839Z,1.60
2022-11-02T07:26:22.870Z,1.30
2022-11-02T07:28:53.816Z,1.35
2022-11-02T07:31:24.370Z,2.13
2022-11-02T07:33:52.080Z,1.17
2022-11-02T07:36:20.089Z,2.42
2022-11-02T07:38:47.855Z,0.70
2022-11-02T07:41:16.959Z,1.05
2022-11-02T07:43:44.704Z,1.50
2022-11-02T07:46:13.591Z,1.10
2022-11-02T07:48:41.481Z,1.23
2022-11-02T07:51:11.167Z,1.17
2022-11-02T07:53:39.333Z,1.73
2022-11-02T07:56:07.787Z,1.63
2022-11-02T07:58:38.014Z,1.80
2022-11-02T08:01:05.812Z,2.13
2022-11-02T08:03:33.484Z,1.73
2022-11-02T08:06:03.187Z,1.90
2022-11-02T08:08:31.157Z,1.27
2022-11-02T08:11:04.945Z,1.75
2022-11-02T08:13:33.077Z,1.40
2022-11-02T08:16:05.317Z,1.42
2022-11-02T08:18:33.740Z,2.05
2022-11-02T08:21:01.798Z,1.42
2022-11-02T08:23:29.538Z,1.58
2022-11-02T08:26:00.544Z,1.33
2022-11-02T08:28:31.028Z,1.83
2022-11-02T08:30:58.932Z,1.98
2022-11-02T08:33:28.400Z,1.50
2022-11-02T08:36:01.831Z,1.50
2022-11-02T08:38:29.510Z,1.67
2022-11-02T08:40:57.261Z,1.80
2022-11-02T08:43:25.245Z,1.60
2022-11-02T08:46:13.757Z,2.05
2022-11-02T08:48:42.441Z,1.65
2022-11-02T08:51:10.169Z,0.98
2022-11-02T08:53:38.052Z,1.55
2022-11-02T08:56:05.962Z,2.55
2022-11-02T08:58:33.634Z,1.35
2022-11-02T09:01:01.456Z,1.55
2022-11-02T09:03:29.168Z,1.50
2022-11-02T09:06:02.872Z,1.80
2022-11-02T09:08:31.337Z,1.98
2022-11-02T09:11:01.005Z,2.22
2022-11-02T09:13:29.539Z,1.40
2022-11-02T09:15:59.278Z,1.30
2022-11-02T09:18:27.616Z,1.35
2022-11-02T09:20:55.429Z,1.80
2022-11-02T09:23:25.005Z,1.23
2022-11-02T09:25:53.571Z,1.38
2022-11-02T09:28:21.389Z,1.92
2022-11-02T09:30:49.088Z,1.48
2022-11-02T09:33:16.867Z,1.38
2022-11-02T09:35:46.783Z,1.80
2022-11-02T09:38:15.982Z,2.42
2022-11-02T09:40:48.991Z,1.42
2022-11-02T09:43:23.068Z,1.60
2022-11-02T09:45:57.767Z,1.60
2022-11-02T09:48:30.230Z,1.50
2022-11-02T09:51:05.099Z,1.30
2022-11-02T09:53:41.973Z,1.40
2022-11-02T09:56:13.228Z,1.40
2022-11-02T09:58:41.930Z,1.08
2022-11-02T10:01:20.679Z,1.30
2022-11-02T10:04:06.170Z,0.82
2022-11-02T10:06:37.260Z,1.30
2022-11-02T10:09:11.658Z,1.90
2022-11-02T10:11:56.574Z,2.00
2022-11-02T10:14:31.920Z,1.30
2022-11-02T10:17:09.459Z,1.13
2022-11-02T10:19:41.158Z,1.80
2022-11-02T10:22:14.006Z,1.83
2022-11-02T10:24:44.627Z,1.40
2022-11-02T10:27:17.955Z,0.82
2022-11-02T10:29:52.686Z,1.50
2022-11-02T10:32:20.432Z,0.63
2022-11-02T10:34:58.482Z,1.60
2022-11-02T10:37:42.720Z,1.23
2022-11-02T10:40:23.738Z,1.20
2022-11-02T10:43:06.584Z,1.50
2022-11-02T10:46:05.553Z,1.42
2022-11-02T10:48:42.023Z,1.20
2022-11-02T10:51:12.352Z,0.73
2022-11-02T10:53:42.724Z,1.10
2022-11-02T10:56:16.312Z,1.77
2022-11-02T10:58:52.326Z,0.95
2022-11-02T11:01:20.445Z,1.35
2022-11-02T11:03:59.875Z,1.73
2022-11-02T11:06:30.712Z,0.85
2022-11-02T11:09:07.204Z,1.10
2022-11-02T11:11:37.098Z,1.10
2022-11-02T11:19:53.119Z,0.95
2022-11-02T11:22:26.885Z,1.20
2022-11-02T11:24:55.175Z,0.60
2022-11-02T11:27:24.084Z,1.42
2022-11-02T11:29:56.941Z,1.30
2022-11-02T11:32:30.151Z,0.93
2022-11-02T11:35:01.809Z,0.90
2022-11-02T11:37:29.983Z,1.25
2022-11-02T11:40:02.418Z,1.20
2022-11-02T11:42:33.279Z,1.45
2022-11-02T11:45:06.784Z,0.65
2022-11-02T11:47:37.885Z,1.05
2022-11-02T11:50:22.049Z,1.40
2022-11-02T11:53:10.937Z,1.20
2022-11-02T11:55:48.871Z,1.40
2022-11-02T11:58:20.985Z,1.55
2022-11-02T12:01:09.210Z,1.00
2022-11-02T12:03:51.942Z,0.98
2022-11-02T12:06:30.788Z,1.42
2022-11-02T12:09:10.359Z,1.95
2022-11-02T12:11:49.872Z,1.17
2022-11-02T12:14:34.395Z,1.00
2022-11-02T12:17:22.201Z,1.20
2022-11-02T12:20:07.396Z,0.70
2022-11-02T12:22:42.179Z,0.77
2022-11-02T12:25:21.945Z,0.77
2022-11-02T12:27:59.403Z,0.82
2022-11-02T12:30:35.219Z,0.98
2022-11-02T12:33:24.286Z,0.90
2022-11-02T12:36:03.898Z,1.30
2022-11-02T12:38:50.585Z,2.13
2022-11-02T12:41:36.551Z,0.88
2022-11-02T12:44:17.523Z,0.70
2022-11-02T12:46:51.396Z,1.15
2022-11-02T12:49:36.095Z,1.92
2022-11-02T12:52:14.202Z,0.98
2022-11-02T12:54:47.192Z,1.10
2022-11-02T12:57:18.810Z,1.55
2022-11-02T12:59:50.747Z,1.05
2022-11-02T13:02:25.523Z,0.65
2022-11-02T13:04:59.958Z,0.90
2022-11-02T13:07:32.301Z,1.33
2022-11-02T13:10:04.099Z,0.68
2022-11-02T13:12:37.696Z,0.50
2022-11-02T13:15:11.920Z,0.90
2022-11-02T13:17:44.963Z,0.70
2022-11-02T13:20:19.647Z,1.05
2022-11-02T13:22:56.454Z,0.80
2022-11-02T13:25:28.754Z,0.75
2022-11-02T13:28:05.652Z,0.90
2022-11-02T13:30:35.194Z,0.90
2022-11-02T13:33:06.051Z,0.65
2022-11-02T13:35:37.221Z,0.82
2022-11-02T13:38:14.984Z,0.98
2022-11-02T13:40:48.405Z,1.00
2022-11-02T13:43:46.360Z,0.77
2022-11-02T13:46:30.176Z,1.30
2022-11-02T13:49:03.445Z,1.25
2022-11-02T13:51:38.267Z,0.95
2022-11-02T13:54:12.728Z,1.23
2022-11-02T13:56:41.597Z,1.55
2022-11-02T13:59:11.218Z,0.82
2022-11-02T14:01:42.006Z,0.90
2022-11-02T14:04:12.600Z,1.05
2022-11-02T14:06:52.356Z,1.05
2022-11-02T14:09:27.016Z,0.60
2022-11-02T14:12:12.581Z,0.73
2022-11-02T14:14:40.347Z,0.75
2022-11-02T14:17:13.142Z,1.15
2022-11-02T14:19:53.532Z,0.90
2022-11-02T14:22:23.224Z,0.60
2022-11-02T14:25:14.185Z,1.48
2022-11-02T14:27:42.017Z,0.70
2022-11-02T14:30:46.530Z,1.67
2022-11-02T14:33:25.810Z,0.70
2022-11-02T14:35:58.862Z,0.90
2022-11-02T14:38:46.671Z,0.85
2022-11-02T14:41:30.789Z,1.00
2022-11-02T14:44:15.728Z,0.80
2022-11-02T14:46:56.829Z,0.70
2022-11-02T14:49:28.047Z,0.93
2022-11-02T14:52:03.640Z,1.25
2022-11-02T14:54:37.504Z,1.52
2022-11-02T14:57:09.159Z,0.85
2022-11-02T14:59:40.688Z,0.88
2022-11-02T15:02:16.872Z,1.52
2022-11-02T15:04:50.077Z,1.25
2022-11-02T15:07:22.991Z,1.30
2022-11-02T15:09:58.497Z,0.80
2022-11-02T15:12:36.607Z,0.85
2022-11-02T15:15:30.959Z,1.02
2022-11-02T15:18:23.131Z,1.55
2022-11-02T15:21:28.505Z,0.98
2022-11-02T15:24:16.678Z,1.70
2022-11-02T15:26:50.341Z,0.80
2022-11-02T15:29:35.963Z,1.42
2022-11-02T15:32:06.928Z,1.05
2022-11-02T15:34:38.192Z,0.98
2022-11-02T15:37:06.672Z,1.00
2022-11-02T15:39:34.660Z,1.42
2022-11-02T15:42:15.205Z,0.88
2022-11-02T15:45:14.325Z,0.88
2022-11-02T15:48:02.041Z,0.93
2022-11-02T15:50:54.885Z,1.13
2022-11-02T15:53:46.821Z,1.30
2022-11-02T15:56:44.365Z,0.77
2022-11-02T15:59:37.679Z,1.42
2022-11-02T16:02:27.530Z,0.95
2022-11-02T16:04:58.876Z,0.93
2022-11-02T16:07:33.425Z,1.20
2022-11-02T16:10:13.833Z,1.23
2022-11-02T16:12:41.674Z,1.05
2022-11-02T16:15:15.413Z,0.85
2022-11-02T16:17:43.152Z,1.38
2022-11-02T16:20:16.163Z,1.85
2022-11-02T16:22:48.434Z,1.02
2022-11-02T16:25:21.556Z,1.55
2022-11-02T16:27:50.143Z,1.20
2022-11-02T16:30:22.387Z,1.45
2022-11-02T16:32:53.732Z,1.65
2022-11-02T16:35:21.654Z,1.48
2022-11-02T16:37:51.014Z,2.17
2022-11-02T16:40:21.108Z,2.42
2022-11-02T16:42:50.758Z,3.00
2022-11-02T16:45:37.185Z,3.47
2022-11-02T16:48:24.498Z,4.32
2022-11-02T16:51:03.718Z,3.58
2022-11-02T16:53:33.089Z,4.40
2022-11-02T16:56:16.302Z,2.90
2022-11-02T16:58:49.736Z,4.97
2022-11-02T17:01:24.197Z,5.90
2022-11-02T17:03:52.138Z,4.95
2022-11-02T17:06:20.065Z,4.18
2022-11-02T17:08:53.284Z,3.92
2022-11-02T17:11:21.964Z,3.80
2022-11-02T17:13:53.943Z,3.85
2022-11-02T17:16:23.050Z,4.82
2022-11-02T17:18:50.882Z,3.30
2022-11-02T17:21:28.643Z,4.63
2022-11-02T17:23:58.493Z,4.65
2022-11-02T17:26:32.622Z,5.03
2022-11-02T17:29:02.295Z,3.50
2022-11-02T17:31:34.485Z,3.22
2022-11-02T17:34:10.015Z,2.78
2022-11-02T17:36:43.207Z,2.50
2022-11-02T17:39:12.699Z,2.78
2022-11-02T17:41:58.162Z,2.55
2022-11-02T17:44:26.051Z,2.72
2022-11-02T17:46:55.692Z,1.98
2022-11-02T17:49:23.583Z,3.45
2022-11-02T17:51:51.525Z,2.35
2022-11-02T17:54:20.791Z,2.92
2022-11-02T17:56:48.704Z,2.33
2022-11-02T17:59:16.515Z,3.17
2022-11-02T18:01:44.501Z,3.03
2022-11-02T18:04:14.075Z,3.30
2022-11-02T18:06:42.005Z,5.13
2022-11-02T18:09:18.773Z,5.30
2022-11-02T18:11:47.242Z,4.15
2022-11-02T18:14:16.543Z,4.30
2022-11-02T18:16:45.500Z,3.63
2022-11-02T18:19:14.962Z,3.47
2022-11-02T18:21:42.740Z,3.30
2022-11-02T18:24:10.873Z,2.83
2022-11-02T18:26:39.370Z,2.78
2022-11-02T18:29:09.211Z,2.63
2022-11-02T18:31:37.366Z,3.30
2022-11-02T18:34:05.054Z,2.03
2022-11-02T18:36:34.270Z,4.55
2022-11-02T18:39:02.148Z,5.60
2022-11-02T18:41:30.926Z,5.15
2022-11-02T18:44:04.672Z,5.65
2022-11-02T18:46:35.173Z,6.60
2022-11-02T18:49:03.074Z,4.18
2022-11-02T18:51:30.978Z,3.80
2022-11-02T18:54:04.831Z,2.75
2022-11-02T18:56:32.766Z,2.67
2022-11-02T18:59:00.960Z,3.30
2022-11-02T19:01:28.858Z,4.13
2022-11-02T19:04:00.127Z,3.47
2022-11-02T19:06:49.794Z,2.58
2022-11-02T19:09:21.090Z,3.15
2022-11-02T19:11:53.490Z,3.05
2022-11-02T19:14:22.864Z,2.65
2022-11-02T19:16:50.963Z,2.75
2022-11-02T19:19:18.749Z,3.85
2022-11-02T19:21:46.658Z,2.63
2022-11-02T19:24:14.650Z,3.63
2022-11-02T19:26:43.786Z,3.47
2022-11-02T19:29:11.696Z,3.78
2022-11-02T19:31:39.609Z,3.83
2022-11-02T19:34:07.610Z,4.00
2022-11-02T19:36:35.521Z,3.83
2022-11-02T19:39:04.087Z,4.25
2022-11-02T19:41:32.470Z,4.15
2022-11-02T19:44:01.773Z,4.57
2022-11-02T19:46:29.805Z,4.82
2022-11-02T19:48:58.436Z,5.22
2022-11-02T19:51:28.361Z,3.97
2022-11-02T19:53:58.302Z,3.72
2022-11-02T19:56:27.772Z,3.45
2022-11-02T19:58:56.555Z,3.85
2022-11-02T20:01:27.168Z,3.95
2022-11-02T20:03:55.472Z,3.83
2022-11-02T20:06:25.674Z,3.35
2022-11-02T20:08:55.254Z,3.35
2022-11-02T20:11:24.257Z,4.68
2022-11-02T20:13:52.105Z,4.15
2022-11-02T20:16:21.195Z,3.67
2022-11-02T20:18:51.799Z,3.83
2022-11-02T20:21:21.041Z,4.80
2022-11-02T20:23:49.301Z,4.25
2022-11-02T20:26:19.382Z,3.38
2022-11-02T20:28:48.375Z,3.60
2022-11-02T20:31:19.160Z,4.43
2022-11-02T20:33:47.592Z,3.60
2022-11-02T20:36:18.689Z,3.92
2022-11-02T20:38:46.691Z,4.85
2022-11-02T20:41:15.937Z,5.68
2022-11-02T20:43:45.256Z,4.13
2022-11-02T20:46:36.683Z,4.15
2022-11-02T20:49:14.339Z,3.35
2022-11-02T20:51:50.660Z,3.28
2022-11-02T20:54:20.353Z,4.35
2022-11-02T20:56:48.426Z,4.65
2022-11-02T20:59:16.751Z,3.95
2022-11-02T21:01:44.582Z,3.65
2022-11-02T21:04:18.543Z,2.65
2022-11-02T21:06:48.408Z,3.15
2022-11-02T21:09:17.603Z,2.95
2022-11-02T21:12:05.540Z,2.50
2022-11-02T21:14:33.319Z,2.47
2022-11-02T21:17:02.504Z,2.28
2022-11-02T21:19:30.284Z,2.40
2022-11-02T21:21:59.929Z,2.50
2022-11-02T21:24:30.096Z,2.72
2022-11-02T21:26:57.931Z,2.15
2022-11-02T21:29:25.784Z,1.83
2022-11-02T21:31:53.596Z,2.70
2022-11-02T21:34:21.520Z,1.92
2022-11-02T21:36:49.489Z,1.50
2022-11-02T21:39:17.320Z,1.40
2022-11-02T21:41:46.371Z,1.65
2022-11-02T21:44:14.132Z,2.25
2022-11-02T21:46:41.879Z,2.20
2022-11-02T21:49:09.779Z,1.13
2022-11-02T21:51:40.570Z,1.20
2022-11-02T21:54:08.749Z,1.80
2022-11-02T21:56:36.879Z,1.27
2022-11-02T21:59:06.159Z,1.33
2022-11-02T22:01:46.814Z,1.08
2022-11-02T22:04:16.712Z,1.50
2022-11-02T22:06:44.462Z,1.27
2022-11-02T22:09:13.660Z,2.00
2022-11-02T22:11:42.634Z,1.90
2022-11-02T22:14:12.432Z,2.70
2022-11-02T22:16:41.692Z,1.63
2022-11-02T22:19:11.039Z,1.85
2022-11-02T22:21:40.711Z,1.30
2022-11-02T22:24:09.158Z,1.20
2022-11-02T22:26:38.921Z,1.65
2022-11-02T22:29:07.488Z,1.83
2022-11-02T22:31:38.793Z,2.15
2022-11-02T22:34:08.219Z,1.83
2022-11-02T22:36:36.816Z,1.35
2022-11-02T22:39:06.963Z,1.40
2022-11-02T22:41:36.809Z,2.05
2022-11-02T22:44:06.266Z,0.98
2022-11-02T22:46:37.638Z,1.95
2022-11-02T22:49:05.820Z,0.93
2022-11-02T22:51:35.605Z,2.20
2022-11-02T22:54:05.546Z,1.35
2022-11-02T22:56:34.344Z,1.25
2022-11-02T22:59:02.930Z,1.50
2022-11-02T23:01:31.984Z,1.13
2022-11-02T23:04:02.053Z,1.25
2022-11-02T23:06:30.768Z,1.33
2022-11-02T23:09:00.047Z,1.60
2022-11-02T23:11:30.391Z,1.23
2022-11-02T23:14:00.216Z,1.63
2022-11-02T23:16:30.093Z,1.35
2022-11-02T23:19:27.294Z,1.42
2022-11-02T23:22:15.622Z,1.02
2022-11-02T23:25:02.801Z,1.17
2022-11-02T23:27:32.000Z,0.90
2022-11-02T23:30:17.262Z,1.40
2022-11-02T23:32:45.000Z,0.98
2022-11-02T23:35:31.455Z,1.40
2022-11-02T23:38:04.054Z,1.55
2022-11-02T23:40:32.467Z,1.45
2022-11-02T23:43:00.330Z,1.50
2022-11-02T23:45:28.127Z,1.67
2022-11-02T23:48:00.511Z,1.23
2022-11-02T23:50:49.445Z,1.10
2022-11-02T23:53:37.596Z,1.52
2022-11-02T23:56:24.914Z,1.23
2022-11-02T23:59:06.540Z,1.35
